createdAt,value
2023-02-02T00:00:30.323Z,101106.59
2023-02-02T00:05:31.928Z,101105.16
2023-02-02T00:10:33.463Z,101117.06
2023-02-02T00:15:35.063Z,101111.16
2023-02-02T00:20:36.670Z,101116.06
2023-02-02T00:25:38.314Z,101117.22
2023-02-02T00:30:39.909Z,101111.47
2023-02-02T00:35:41.950Z,101120.81
2023-02-02T00:40:43.998Z,101112.81
2023-02-02T00:45:45.676Z,101124.69
2023-02-02T00:50:47.225Z,101121.28
2023-02-02T00:55:48.774Z,101105.47
2023-02-02T01:00:50.325Z,101116.47
2023-02-02T01:05:52.034Z,101114.75
2023-02-02T01:10:53.599Z,101122.59
2023-02-02T01:15:59.421Z,101120.53
2023-02-02T01:21:04.718Z,101146.31
2023-02-02T01:26:08.861Z,101160.56
2023-02-02T01:31:14.272Z,101187.38
2023-02-02T01:36:19.645Z,101193.19
2023-02-02T01:41:24.742Z,101194.19
2023-02-02T01:46:29.599Z,101178.06
2023-02-02T01:51:58.111Z,101166.34
2023-02-02T01:57:04.919Z,101165.34
2023-02-02T02:02:07.567Z,101167.19
2023-02-02T02:07:10.093Z,101148.53
2023-02-02T02:12:14.583Z,101141.22
2023-02-02T02:17:25.716Z,101137.50
2023-02-02T02:23:08.617Z,101141.22
2023-02-02T02:28:44.851Z,101129.84
2023-02-02T02:34:07.839Z,101130.72
2023-02-02T02:39:40.038Z,101133.44
2023-02-02T02:44:42.076Z,101137.34
2023-02-02T02:49:45.387Z,101136.50
2023-02-02T02:54:51.289Z,101133.78
2023-02-02T03:00:18.303Z,101134.63
2023-02-02T03:05:51.074Z,101131.06
2023-02-02T03:10:53.920Z,101125.78
2023-02-02T03:15:56.068Z,101122.56
2023-02-02T03:20:58.004Z,101119.19
2023-02-02T03:25:59.810Z,101112.75
2023-02-02T03:31:02.420Z,101124.63
2023-02-02T03:36:04.291Z,101133.44
2023-02-02T03:41:06.215Z,101119.53
2023-02-02T03:46:07.908Z,101113.41
2023-02-02T03:51:11.944Z,101130.91
2023-02-02T03:56:14.309Z,101148.06
2023-02-02T04:01:15.948Z,101152.44
2023-02-02T04:06:19.810Z,101158.91
2023-02-02T04:11:21.410Z,101143.63
2023-02-02T04:16:23.508Z,101150.94
2023-02-02T04:21:25.067Z,101143.63
2023-02-02T04:26:27.161Z,101154.31
2023-02-02T04:31:29.904Z,101166.38
2023-02-02T04:36:31.525Z,101171.81
2023-02-02T04:41:33.080Z,101186.25
2023-02-02T04:46:34.623Z,101196.94
2023-02-02T04:51:36.201Z,101181.84
2023-02-02T04:56:40.138Z,101179.97
2023-02-02T05:01:41.726Z,101196.09
2023-02-02T05:06:43.270Z,101202.03
2023-02-02T05:11:44.946Z,101209.50
2023-02-02T05:16:46.555Z,101204.25
2023-02-02T05:21:51.142Z,101207.13
2023-02-02T05:26:58.338Z,101202.56
2023-02-02T05:32:00.340Z,101211.38
2023-02-02T05:37:01.981Z,101200.84
2023-02-02T05:42:03.701Z,101212.56
2023-02-02T05:47:05.578Z,101224.28
2023-02-02T05:52:07.265Z,101224.78
2023-02-02T05:57:08.800Z,101229.19
2023-02-02T06:02:10.332Z,101229.84
2023-02-02T06:07:12.506Z,101225.63
2023-02-02T06:12:14.082Z,101245.31
2023-02-02T06:17:15.680Z,101253.63
2023-02-02T06:22:17.300Z,101254.66
2023-02-02T06:27:20.701Z,101261.28
2023-02-02T06:32:22.273Z,101264.31
2023-02-02T06:37:23.925Z,101252.94
2023-02-02T06:42:25.509Z,101246.69
2023-02-02T06:47:27.298Z,101248.56
2023-02-02T06:52:28.958Z,101238.00
2023-02-02T06:57:30.676Z,101228.88
2023-02-02T07:02:32.337Z,101224.28
2023-02-02T07:07:35.028Z,101230.53
2023-02-02T07:12:36.562Z,101215.94
2023-02-02T07:17:38.192Z,101212.22
2023-02-02T07:22:40.399Z,101229.84
2023-02-02T07:27:42.142Z,101243.41
2023-02-02T07:32:50.667Z,101255.28
2023-02-02T07:37:54.182Z,101251.53
2023-02-02T07:42:55.998Z,101269.84
2023-02-02T07:47:59.173Z,101265.59
2023-02-02T07:53:01.104Z,101274.94
2023-02-02T07:58:02.930Z,101279.00
2023-02-02T08:03:04.583Z,101283.44
2023-02-02T08:08:06.169Z,101305.50
2023-02-02T08:13:07.725Z,101315.50
2023-02-02T08:18:09.312Z,101324.00
2023-02-02T08:23:15.645Z,101349.31
2023-02-02T08:28:18.328Z,101365.09
2023-02-02T08:33:19.905Z,101377.84
2023-02-02T08:38:23.863Z,101380.56
2023-02-02T08:43:25.405Z,101396.38
2023-02-02T08:48:27.055Z,101400.97
2023-02-02T08:53:29.786Z,101405.38
2023-02-02T08:58:32.300Z,101402.31
2023-02-02T09:03:35.106Z,101409.13
2023-02-02T09:08:37.368Z,101405.38
2023-02-02T09:13:40.578Z,101422.38
2023-02-02T09:18:43.583Z,101422.38
2023-02-02T09:23:46.711Z,101418.47
2023-02-02T09:28:57.438Z,101414.19
2023-02-02T09:34:03.251Z,101400.91
2023-02-02T09:39:06.384Z,101399.53
2023-02-02T09:44:29.765Z,101409.34
2023-02-02T09:49:59.316Z,101409.06
2023-02-02T09:55:07.116Z,101430.47
2023-02-02T10:00:29.486Z,101434.19
2023-02-02T10:05:44.798Z,101413.22
2023-02-02T10:10:48.196Z,101411.88
2023-02-02T10:16:03.639Z,101422.97
2023-02-02T10:21:27.580Z,101449.41
2023-02-02T10:26:55.617Z,101472.81
2023-02-02T10:32:00.392Z,101471.03
2023-02-02T10:37:15.408Z,101474.75
2023-02-02T10:43:13.081Z,101473.47
2023-02-02T10:48:22.167Z,101467.31
2023-02-02T10:53:28.498Z,101475.00
2023-02-02T10:58:44.724Z,101484.81
2023-02-02T11:03:46.422Z,101477.34
2023-02-02T11:08:56.832Z,101492.22
2023-02-02T11:14:11.416Z,101476.56
2023-02-02T11:19:22.026Z,101486.34
2023-02-02T11:24:28.419Z,101486.53
2023-02-02T11:29:39.270Z,101493.78
2023-02-02T11:34:40.836Z,101503.53
2023-02-02T11:39:45.178Z,101504.63
2023-02-02T11:44:55.694Z,101495.09
2023-02-02T11:50:00.889Z,101493.88
2023-02-02T11:55:14.917Z,101487.31
2023-02-02T12:00:19.043Z,101475.69
2023-02-02T12:05:20.549Z,101465.84
2023-02-02T12:10:47.400Z,101451.03
2023-02-02T12:16:16.639Z,101455.28
2023-02-02T12:21:28.041Z,101452.56
2023-02-02T12:26:34.324Z,101436.56
2023-02-02T12:32:00.322Z,101456.88
2023-02-02T12:37:26.681Z,101465.06
2023-02-02T12:42:52.448Z,101465.72
2023-02-02T12:48:21.680Z,101467.25
2023-02-02T12:53:40.283Z,101468.56
2023-02-02T12:59:16.928Z,101472.88
2023-02-02T13:04:21.550Z,101478.22
2023-02-02T13:09:50.057Z,101480.44
2023-02-02T13:14:59.618Z,101460.88
2023-02-02T13:20:05.472Z,101462.59
2023-02-02T13:25:17.512Z,101466.50
2023-02-02T13:30:35.162Z,101477.41
2023-02-02T13:35:51.412Z,101478.28
2023-02-02T13:40:59.769Z,101476.91
2023-02-02T13:46:19.687Z,101473.34
2023-02-02T13:51:51.053Z,101484.63
2023-02-02T13:57:35.659Z,101486.47
2023-02-02T14:02:45.056Z,101484.97
2023-02-02T14:07:48.019Z,101488.91
2023-02-02T14:12:49.978Z,101493.31
2023-02-02T14:17:54.004Z,101499.66
2023-02-02T14:22:55.529Z,101490.25
2023-02-02T14:28:09.649Z,101487.81
2023-02-02T14:33:26.807Z,101501.44
2023-02-02T14:38:45.308Z,101502.16
2023-02-02T14:43:51.290Z,101498.44
2023-02-02T14:48:52.842Z,101496.91
2023-02-02T14:54:00.693Z,101505.94
2023-02-02T14:59:03.082Z,101516.84
2023-02-02T15:04:19.918Z,101534.88
2023-02-02T15:09:26.556Z,101541.22
2023-02-02T15:14:33.959Z,101538.47
2023-02-02T15:19:40.308Z,101543.94
2023-02-02T15:24:45.701Z,101552.97
2023-02-02T15:29:54.855Z,101552.47
2023-02-02T15:35:02.192Z,101572.59
2023-02-02T15:40:07.705Z,101563.75
2023-02-02T15:45:29.657Z,101563.91
2023-02-02T15:50:31.439Z,101570.19
2023-02-02T15:55:35.587Z,101576.00
2023-02-02T16:00:38.194Z,101572.13
2023-02-02T16:05:56.015Z,101578.97
2023-02-02T16:11:05.556Z,101573.84
2023-02-02T16:16:22.394Z,101584.25
2023-02-02T16:21:25.810Z,101589.19
2023-02-02T16:26:30.185Z,101605.75
2023-02-02T16:31:35.769Z,101606.75
2023-02-02T16:36:37.428Z,101615.75
2023-02-02T16:41:39.025Z,101635.22
2023-02-02T16:46:49.584Z,101642.34
2023-02-02T16:52:13.377Z,101652.06
2023-02-02T16:57:19.613Z,101655.63
2023-02-02T17:02:35.604Z,101669.25
2023-02-02T17:07:38.275Z,101681.00
2023-02-02T17:12:39.822Z,101678.28
2023-02-02T17:17:41.358Z,101681.16
2023-02-02T17:22:52.464Z,101677.94
2023-02-02T17:27:55.709Z,101686.31
2023-02-02T17:32:57.728Z,101701.59
2023-02-02T17:37:59.320Z,101710.81
2023-02-02T17:43:02.332Z,101721.53
2023-02-02T17:48:04.779Z,101727.50
2023-02-02T17:53:07.003Z,101713.19
2023-02-02T17:58:10.552Z,101724.25
2023-02-02T18:03:17.140Z,101713.56
2023-02-02T18:08:18.869Z,101715.41
2023-02-02T18:13:22.583Z,101721.22
2023-02-02T18:18:24.161Z,101714.72
2023-02-02T18:23:25.873Z,101721.22
2023-02-02T18:28:27.461Z,101721.56
2023-02-02T18:33:28.988Z,101719.66
2023-02-02T18:38:30.586Z,101714.22
2023-02-02T18:43:32.249Z,101702.47
2023-02-02T18:48:33.823Z,101708.44
2023-02-02T18:53:35.440Z,101711.00
2023-02-02T18:58:37.161Z,101694.31
2023-02-02T19:03:39.497Z,101696.69
2023-02-02T19:08:41.088Z,101690.41
2023-02-02T19:13:43.852Z,101679.19
2023-02-02T19:18:46.253Z,101674.41
2023-02-02T19:23:47.844Z,101672.53
2023-02-02T19:28:49.488Z,101682.59
2023-02-02T19:33:52.946Z,101682.22
2023-02-02T19:39:17.203Z,101675.78
2023-02-02T19:44:21.213Z,101675.09
2023-02-02T19:49:22.746Z,101681.19
2023-02-02T19:54:45.235Z,101699.25
2023-02-02T19:59:49.272Z,101688.69
2023-02-02T20:05:06.158Z,101705.03
2023-02-02T20:10:24.548Z,101709.47
2023-02-02T20:15:33.825Z,101708.63
2023-02-02T20:20:40.625Z,101704.88
2023-02-02T20:25:44.175Z,101703.69
2023-02-02T20:30:49.463Z,101703.88
2023-02-02T20:35:51.628Z,101707.44
2023-02-02T20:40:54.114Z,101707.59
2023-02-02T20:45:55.817Z,101718.84
2023-02-02T20:50:57.459Z,101708.28
2023-02-02T20:56:01.693Z,101711.16
2023-02-02T21:01:06.278Z,101706.06
2023-02-02T21:06:07.905Z,101694.50
2023-02-02T21:11:09.661Z,101704.19
2023-02-02T21:16:11.371Z,101713.41
2023-02-02T21:21:14.257Z,101711.50
2023-02-02T21:26:21.970Z,101709.13
2023-02-02T21:31:24.397Z,101698.91
2023-02-02T21:36:33.271Z,101689.81
2023-02-02T21:41:34.904Z,101693.72
2023-02-02T21:46:38.386Z,101679.97
2023-02-02T21:51:39.967Z,101665.31
2023-02-02T21:56:42.134Z,101654.28
2023-02-02T22:01:45.098Z,101651.41
2023-02-02T22:06:52.130Z,101640.34
2023-02-02T22:12:02.608Z,101655.47
2023-02-02T22:17:24.580Z,101648.84
2023-02-02T22:22:32.590Z,101656.31
2023-02-02T22:27:42.534Z,101674.84
2023-02-02T22:32:44.172Z,101668.56
2023-02-02T22:37:45.882Z,101659.00
2023-02-02T22:42:47.609Z,101646.25
2023-02-02T22:47:49.624Z,101638.25
2023-02-02T22:52:51.569Z,101634.00
2023-02-02T22:57:53.384Z,101636.91
2023-02-02T23:02:55.613Z,101642.03
2023-02-02T23:07:57.257Z,101654.78
2023-02-02T23:12:59.195Z,101648.31
2023-02-02T23:18:00.986Z,101656.31
2023-02-02T23:23:02.685Z,101664.16
2023-02-02T23:28:04.401Z,101676.56
2023-02-02T23:33:06.014Z,101688.97
2023-02-02T23:38:07.540Z,101710.41
2023-02-02T23:43:09.142Z,101716.34
2023-02-02T23:48:11.096Z,101718.06
2023-02-02T23:53:13.179Z,101727.63
2023-02-02T23:58:15.020Z,101727.47
